Time;durP1;ratioP1;P1;durP2;ratioP2;P2;SDS_P1;SDS_P2;PMS_P1;PMS_P2;Temp;Humidity;BMP_temperature;BMP_pressure;BME280_temperature;BME280_humidity;BME280_pressure;Samples;Min_cycle;Max_cycle;Signal;HPM_P1;HPM_P2
2024/01/04 00:01:12;;;;;;;10.43;3.80;;;;;;;-148.88;100.00;-17125.47;5036844;28;20025;-80
2024/01/04 00:03:38;;;;;;;10.13;3.47;;;;;;;-148.88;100.00;-17125.47;5056088;28;20056;-80
2024/01/04 00:06:03;;;;;;;8.40;4.30;;;;;;;-148.88;100.00;-17125.47;5056269;28;20029;-80
2024/01/04 00:08:29;;;;;;;7.60;3.70;;;;;;;-148.88;100.00;-17125.47;5056193;28;20127;-81
2024/01/04 00:10:54;;;;;;;9.20;3.42;;;;;;;-148.88;100.00;-17125.47;5056264;28;20033;-80
2024/01/04 00:13:19;;;;;;;7.45;2.97;;;;;;;-148.88;100.00;-17125.47;5038266;28;20055;-80
2024/01/04 00:15:45;;;;;;;14.40;5.95;;;;;;;-148.88;100.00;-17125.47;5056509;28;20375;-80
2024/01/04 00:18:10;;;;;;;7.63;2.85;;;;;;;-148.88;100.00;-17125.47;5056327;28;20029;-80
2024/01/04 00:20:35;;;;;;;7.68;3.78;;;;;;;-148.88;100.00;-17125.47;5056458;28;20051;-80
2024/01/04 00:23:01;;;;;;;6.85;2.63;;;;;;;-148.88;100.00;-17125.47;5057323;28;20452;-80
2024/01/04 00:25:26;;;;;;;7.55;3.47;;;;;;;-148.88;100.00;-17125.47;5053522;28;20450;-80
2024/01/04 00:27:52;;;;;;;6.78;2.78;;;;;;;-148.88;100.00;-17125.47;5053734;28;20078;-79
2024/01/04 00:30:18;;;;;;;11.65;3.70;;;;;;;-148.88;100.00;-17125.47;5035560;28;20017;-79
2024/01/04 00:32:43;;;;;;;7.10;2.92;;;;;;;-148.88;100.00;-17125.47;5052938;28;20021;-80
2024/01/04 00:35:09;;;;;;;9.65;3.05;;;;;;;-148.88;100.00;-17125.47;5035748;28;20013;-80
2024/01/04 00:37:34;;;;;;;7.88;3.65;;;;;;;-148.88;100.00;-17125.47;5053625;28;20021;-80
2024/01/04 00:40:00;;;;;;;9.57;3.33;;;;;;;-148.88;100.00;-17125.47;5035918;28;20033;-80
2024/01/04 00:42:25;;;;;;;9.90;5.63;;;;;;;-148.88;100.00;-17125.47;5037696;28;20028;-80
2024/01/04 00:44:50;;;;;;;7.28;3.08;;;;;;;-148.88;100.00;-17125.47;5058102;28;20025;-80
2024/01/04 00:47:16;;;;;;;8.55;3.40;;;;;;;-148.88;100.00;-17125.47;5039256;28;20029;-80
2024/01/04 00:49:41;;;;;;;10.73;6.78;;;;;;;-148.88;100.00;-17125.47;5039167;28;20119;-80
2024/01/04 00:52:06;;;;;;;7.93;3.50;;;;;;;-148.88;100.00;-17125.47;5039053;28;20029;-80
2024/01/04 00:54:32;;;;;;;9.57;3.42;;;;;;;-148.88;100.00;-17125.47;5056841;28;20021;-81
2024/01/04 00:56:58;;;;;;;9.70;3.40;;;;;;;-148.88;100.00;-17125.47;5038491;28;20441;-81
2024/01/04 00:59:23;;;;;;;14.43;4.18;;;;;;;-148.88;100.00;-17125.47;5037379;28;20033;-80
2024/01/04 01:01:49;;;;;;;11.60;4.10;;;;;;;-148.88;100.00;-17125.47;5053658;28;20071;-80
2024/01/04 01:04:14;;;;;;;6.60;3.55;;;;;;;-148.88;100.00;-17125.47;5053220;28;20449;-80
2024/01/04 01:06:40;;;;;;;10.45;3.80;;;;;;;-148.88;100.00;-17125.47;5053782;28;20091;-80
2024/01/04 01:09:05;;;;;;;11.32;3.75;;;;;;;-148.88;100.00;-17125.47;5035513;28;20082;-80
2024/01/04 01:11:30;;;;;;;8.25;3.55;;;;;;;-148.88;100.00;-17125.47;5053348;28;20025;-80
2024/01/04 01:13:55;;;;;;;10.73;3.60;;;;;;;-148.88;100.00;-17125.47;5054075;28;20049;-80
2024/01/04 01:16:21;;;;;;;8.40;2.92;;;;;;;-148.88;100.00;-17125.47;5035596;28;20041;-80
2024/01/04 01:18:46;;;;;;;5.03;2.53;;;;;;;-148.88;100.00;-17125.47;5056270;28;20028;-80
2024/01/04 01:21:12;;;;;;;5.85;2.45;;;;;;;-148.88;100.00;-17125.47;5038563;28;20031;-80
2024/01/04 01:23:37;;;;;;;4.53;1.95;;;;;;;-148.88;100.00;-17125.47;5039478;28;20107;-80
2024/01/04 01:26:02;;;;;;;5.38;1.92;;;;;;;-148.88;100.00;-17125.47;5058159;28;20480;-80
2024/01/04 01:28:29;;;;;;;3.97;1.27;;;;;;;-148.88;100.00;-17125.47;5056535;28;20471;-80
2024/01/04 01:30:55;;;;;;;4.25;1.42;;;;;;;-148.88;100.00;-17125.47;5039357;28;20020;-80
2024/01/04 01:33:20;;;;;;;5.15;1.20;;;;;;;-148.88;100.00;-17125.47;5057227;28;20036;-80
2024/01/04 01:35:46;;;;;;;3.33;1.27;;;;;;;-148.88;100.00;-17125.47;5054759;28;20131;-80
2024/01/04 01:38:11;;;;;;;4.65;1.38;;;;;;;-148.88;100.00;-17125.47;5052773;28;20023;-80
2024/01/04 01:40:36;;;;;;;4.45;1.58;;;;;;;-148.88;100.00;-17125.47;5052534;28;20026;-80
2024/01/04 01:43:01;;;;;;;5.95;1.80;;;;;;;-148.88;100.00;-17125.47;5053485;28;20051;-80
2024/01/04 01:45:27;;;;;;;4.00;1.60;;;;;;;-148.88;100.00;-17125.47;5056109;28;20475;-80
2024/01/04 01:47:54;;;;;;;5.38;1.77;;;;;;;-148.88;100.00;-17125.47;5039019;28;20430;-80
2024/01/04 01:50:21;;;;;;;4.20;1.75;;;;;;;-148.88;100.00;-17125.47;5057022;28;20029;-80
2024/01/04 01:52:51;;;;;;;5.63;2.17;;;;;;;-148.88;100.00;-17125.47;5059416;28;20033;-80
2024/01/04 01:55:17;;;;;;;7.00;2.22;;;;;;;-148.88;100.00;-17125.47;5060573;28;20017;-80
2024/01/04 01:57:43;;;;;;;7.35;2.05;;;;;;;-148.88;100.00;-17125.47;5060537;28;20043;-80
2024/01/04 02:00:10;;;;;;;6.72;3.88;;;;;;;-148.88;100.00;-17125.47;5042965;28;20037;-80
2024/01/04 02:02:36;;;;;;;6.82;4.00;;;;;;;-148.88;100.00;-17125.47;5061117;28;20472;-80
2024/01/04 02:22:48;;;;;;;5.30;2.22;;;;;;;-148.88;100.00;-17125.47;5057521;28;20621;-80
2024/01/04 02:25:13;;;;;;;5.63;2.00;;;;;;;-148.88;100.00;-17125.47;5057263;28;20029;-80
2024/01/04 02:27:38;;;;;;;7.63;4.65;;;;;;;-148.88;100.00;-17125.47;5059149;28;20051;-80
2024/01/04 02:30:04;;;;;;;6.07;1.98;;;;;;;-148.88;100.00;-17125.47;5059618;28;20060;-80
2024/01/04 02:32:30;;;;;;;5.10;1.60;;;;;;;-148.88;100.00;-17125.47;5059662;28;20028;-80
2024/01/04 02:34:55;;;;;;;4.13;1.88;;;;;;;-148.88;100.00;-17125.47;5060001;28;20097;-81
2024/01/04 02:37:20;;;;;;;4.07;2.03;;;;;;;-148.88;100.00;-17125.47;5058990;28;20533;-81
2024/01/04 02:39:46;;;;;;;5.18;2.03;;;;;;;-148.88;100.00;-17125.47;5059019;28;20610;-81
2024/01/04 02:42:11;;;;;;;4.95;2.05;;;;;;;-148.88;100.00;-17125.47;5058578;28;20032;-80
2024/01/04 02:44:36;;;;;;;5.32;3.10;;;;;;;-148.88;100.00;-17125.47;5059073;28;20033;-81
2024/01/04 02:47:02;;;;;;;4.40;2.25;;;;;;;-148.88;100.00;-17125.47;5057685;28;20025;-80
2024/01/04 02:49:29;;;;;;;5.05;2.25;;;;;;;-148.88;100.00;-17125.47;5056214;28;20435;-80
2024/01/04 02:51:54;;;;;;;7.93;2.05;;;;;;;-148.88;100.00;-17125.47;5056274;28;20476;-80
2024/01/04 02:54:19;;;;;;;4.47;2.25;;;;;;;-148.88;100.00;-17125.47;5037833;28;20025;-80
2024/01/04 02:56:44;;;;;;;5.45;2.05;;;;;;;-148.88;100.00;-17125.47;5055112;28;20024;-80
2024/01/04 02:59:10;;;;;;;5.15;1.73;;;;;;;-148.88;100.00;-17125.47;5037991;28;20075;-80
2024/01/04 03:01:36;;;;;;;5.68;1.83;;;;;;;-148.88;100.00;-17125.47;5057681;28;20158;-80
2024/01/04 03:04:01;;;;;;;3.00;1.50;;;;;;;-148.88;100.00;-17125.47;5059309;28;20028;-80
2024/01/04 03:06:27;;;;;;;4.68;2.05;;;;;;;-148.88;100.00;-17125.47;5040098;28;20028;-80
2024/01/04 03:08:53;;;;;;;3.85;1.65;;;;;;;-148.88;100.00;-17125.47;5057431;28;20112;-80
2024/01/04 03:11:19;;;;;;;4.45;1.88;;;;;;;-148.88;100.00;-17125.47;5057968;28;20076;-80
2024/01/04 03:13:46;;;;;;;3.65;1.48;;;;;;;-148.88;100.00;-17125.47;5059027;28;20047;-80
2024/01/04 03:16:12;;;;;;;4.60;1.90;;;;;;;-148.88;100.00;-17125.47;5058388;28;20051;-80
2024/01/04 03:18:37;;;;;;;5.63;1.45;;;;;;;-148.88;100.00;-17125.47;5059074;28;20403;-80
2024/01/04 03:21:05;;;;;;;4.95;1.38;;;;;;;-148.88;100.00;-17125.47;5058570;28;20025;-80
2024/01/04 03:23:30;;;;;;;6.57;1.35;;;;;;;-148.88;100.00;-17125.47;5055403;28;20435;-80
2024/01/04 03:25:55;;;;;;;2.47;0.95;;;;;;;-148.88;100.00;-17125.47;5036841;28;20017;-80
2024/01/04 03:28:21;;;;;;;2.25;0.80;;;;;;;-148.88;100.00;-17125.47;5054860;28;20056;-80
2024/01/04 03:30:46;;;;;;;2.47;1.02;;;;;;;-148.88;100.00;-17125.47;5054887;28;20021;-80
2024/01/04 03:33:11;;;;;;;3.70;0.82;;;;;;;-148.88;100.00;-17125.47;5037071;28;20107;-80
2024/01/04 03:35:37;;;;;;;2.70;1.08;;;;;;;-148.88;100.00;-17125.47;5055890;28;20032;-80
2024/01/04 03:38:02;;;;;;;2.85;1.25;;;;;;;-148.88;100.00;-17125.47;5058960;28;20100;-80
2024/01/04 03:40:28;;;;;;;2.83;1.05;;;;;;;-148.88;100.00;-17125.47;5039848;28;20017;-80
2024/01/04 03:42:53;;;;;;;2.92;1.10;;;;;;;-148.88;100.00;-17125.47;5040254;28;20108;-80
2024/01/04 03:55:24;;;;;;;2.88;0.90;;;;;;;-148.88;100.00;-17125.47;5058085;28;20122;-80
2024/01/04 03:57:50;;;;;;;2.83;0.82;;;;;;;-148.88;100.00;-17125.47;5040594;28;20554;-80
2024/01/04 04:00:17;;;;;;;3.22;0.80;;;;;;;-148.88;100.00;-17125.47;5036086;28;20021;-80
2024/01/04 04:02:43;;;;;;;1.77;0.65;;;;;;;-148.88;100.00;-17125.47;5036282;28;20025;-80
2024/01/04 04:05:08;;;;;;;1.58;0.90;;;;;;;-148.88;100.00;-17125.47;5054662;28;20025;-80
2024/01/04 04:07:34;;;;;;;7.30;0.90;;;;;;;-148.88;100.00;-17125.47;5054113;28;20029;-80
2024/01/04 04:10:02;;;;;;;4.57;0.57;;;;;;;-148.88;100.00;-17125.47;5054753;28;20025;-80
2024/01/04 04:12:27;;;;;;;2.42;0.65;;;;;;;-148.88;100.00;-17125.47;5040461;28;20518;-80
2024/01/04 04:14:52;;;;;;;1.52;0.57;;;;;;;-148.88;100.00;-17125.47;5060415;28;20033;-80
2024/01/04 04:17:24;;;;;;;1.05;0.52;;;;;;;-148.88;100.00;-17125.47;5041749;28;20032;-80
2024/01/04 04:19:50;;;;;;;2.05;0.68;;;;;;;-148.88;100.00;-17125.47;5058591;28;20033;-80
2024/01/04 04:26:27;;;;;;;2.50;0.40;;;;;;;-148.88;100.00;-17125.47;5057566;28;20060;-80
2024/01/04 04:28:52;;;;;;;1.40;0.52;;;;;;;-148.88;100.00;-17125.47;5057231;28;20020;-80
2024/01/04 04:31:19;;;;;;;3.88;0.40;;;;;;;-148.88;100.00;-17125.47;5058150;28;20055;-80
2024/01/04 04:33:45;;;;;;;2.35;0.52;;;;;;;-148.88;100.00;-17125.47;5038983;28;20017;-80
2024/01/04 04:39:55;;;;;;;0.70;0.38;;;;;;;-148.88;100.00;-17125.47;5053926;28;20407;-80
2024/01/04 04:42:20;;;;;;;0.88;0.40;;;;;;;-148.88;100.00;-17125.47;5035892;28;20097;-80
2024/01/04 04:44:46;;;;;;;0.82;0.40;;;;;;;-148.88;100.00;-17125.47;5054815;28;20029;-80
2024/01/04 04:47:11;;;;;;;1.45;0.40;;;;;;;-148.88;100.00;-17125.47;5057655;28;20108;-80
2024/01/04 04:49:36;;;;;;;1.30;0.57;;;;;;;-148.88;100.00;-17125.47;5038943;28;20025;-80
2024/01/04 04:52:02;;;;;;;1.52;0.55;;;;;;;-148.88;100.00;-17125.47;5038806;28;20075;-80
2024/01/04 04:54:27;;;;;;;4.63;0.60;;;;;;;-148.88;100.00;-17125.47;5057120;28;20034;-80
2024/01/04 04:56:53;;;;;;;1.05;0.35;;;;;;;-148.88;100.00;-17125.47;5039758;28;20017;-80
2024/01/04 04:59:18;;;;;;;1.58;0.50;;;;;;;-148.88;100.00;-17125.47;5039352;28;20467;-80
2024/01/04 05:01:44;;;;;;;0.98;0.40;;;;;;;-148.88;100.00;-17125.47;5057270;28;20120;-80
2024/01/04 05:04:10;;;;;;;1.92;0.40;;;;;;;-148.88;100.00;-17125.47;5037716;28;20062;-80
2024/01/04 05:09:57;;;;;;;2.00;0.40;;;;;;;-148.88;100.00;-17125.47;5054364;28;20078;-79
2024/01/04 05:12:22;;;;;;;1.45;0.50;;;;;;;-148.88;100.00;-17125.47;5053110;28;20020;-80
2024/01/04 05:14:47;;;;;;;0.93;0.40;;;;;;;-148.88;100.00;-17125.47;5053112;28;20501;-80
2024/01/04 05:17:13;;;;;;;1.85;0.47;;;;;;;-148.88;100.00;-17125.47;5053527;28;20116;-80
2024/01/04 05:19:38;;;;;;;1.15;0.38;;;;;;;-148.88;100.00;-17125.47;5035242;28;20021;-80
2024/01/04 05:22:03;;;;;;;1.50;0.40;;;;;;;-148.88;100.00;-17125.47;5053745;28;20053;-80
2024/01/04 05:24:29;;;;;;;2.38;0.60;;;;;;;-148.88;100.00;-17125.47;5053635;28;20027;-80
2024/01/04 05:26:54;;;;;;;1.67;0.47;;;;;;;-148.88;100.00;-17125.47;5055996;28;20028;-80
2024/01/04 05:29:19;;;;;;;1.80;0.60;;;;;;;-148.88;100.00;-17125.47;5055209;28;20029;-80
2024/01/04 05:31:45;;;;;;;2.28;0.57;;;;;;;-148.88;100.00;-17125.47;5056015;28;20036;-80
2024/01/04 05:34:10;;;;;;;1.27;0.43;;;;;;;-148.88;100.00;-17125.47;5037036;28;20013;-80
2024/01/04 05:36:35;;;;;;;3.13;0.65;;;;;;;-148.88;100.00;-17125.47;5055099;28;20036;-80
2024/01/04 05:39:01;;;;;;;2.13;1.00;;;;;;;-148.88;100.00;-17125.47;5055749;28;20017;-80
2024/01/04 05:41:26;;;;;;;1.38;0.60;;;;;;;-148.88;100.00;-17125.47;5056643;28;20110;-80
2024/01/04 05:43:51;;;;;;;4.93;1.00;;;;;;;-148.88;100.00;-17125.47;5040029;28;20055;-81
2024/01/04 05:46:17;;;;;;;0.73;0.40;;;;;;;-148.88;100.00;-17125.47;5055588;28;20029;-80
2024/01/04 05:48:42;;;;;;;2.55;0.73;;;;;;;-148.88;100.00;-17125.47;5053841;28;20108;-80
2024/01/04 05:51:08;;;;;;;1.88;0.80;;;;;;;-148.88;100.00;-17125.47;5036098;28;20025;-80
2024/01/04 05:53:33;;;;;;;4.68;0.77;;;;;;;-148.88;100.00;-17125.47;5053803;28;20052;-80
2024/01/04 05:55:58;;;;;;;4.72;1.00;;;;;;;-148.88;100.00;-17125.47;5056872;28;20033;-80
2024/01/04 05:58:24;;;;;;;2.80;0.90;;;;;;;-148.88;100.00;-17125.47;5057944;28;20102;-80
2024/01/04 06:00:49;;;;;;;1.60;0.80;;;;;;;-148.88;100.00;-17125.47;5056001;28;20108;-80
2024/01/04 06:03:14;;;;;;;1.90;0.93;;;;;;;-148.88;100.00;-17125.47;5039148;28;20438;-80
2024/01/04 06:05:40;;;;;;;2.60;0.90;;;;;;;-148.88;100.00;-17125.47;5040811;28;19913;-81
2024/01/04 06:08:06;;;;;;;4.07;1.52;;;;;;;-148.88;100.00;-17125.47;5040296;28;20040;-81
2024/01/04 06:10:31;;;;;;;6.18;1.40;;;;;;;-148.88;100.00;-17125.47;5038411;28;20045;-81
2024/01/04 06:12:56;;;;;;;4.82;1.40;;;;;;;-148.88;100.00;-17125.47;5038720;28;20385;-82
2024/01/04 06:15:22;;;;;;;4.47;1.40;;;;;;;-148.88;100.00;-17125.47;5057942;28;20464;-80
2024/01/04 06:17:47;;;;;;;2.45;0.90;;;;;;;-148.88;100.00;-17125.47;5060226;28;20035;-80
2024/01/04 06:20:12;;;;;;;3.08;1.33;;;;;;;-148.88;100.00;-17125.47;5058558;28;20033;-80
2024/01/04 06:22:39;;;;;;;4.82;1.27;;;;;;;-148.88;100.00;-17125.47;5053289;28;20107;-80
2024/01/04 06:25:05;;;;;;;2.97;0.90;;;;;;;-148.88;100.00;-17125.47;5052968;28;20017;-80
2024/01/04 06:27:30;;;;;;;2.45;0.80;;;;;;;-148.88;100.00;-17125.47;5037221;28;20035;-80
2024/01/04 06:29:55;;;;;;;2.13;0.75;;;;;;;-148.88;100.00;-17125.47;5058117;28;20029;-80
2024/01/04 06:32:21;;;;;;;4.47;1.23;;;;;;;-148.88;100.00;-17125.47;5060693;28;20025;-80
2024/01/04 06:34:46;;;;;;;4.43;1.10;;;;;;;-148.88;100.00;-17125.47;5043342;28;20017;-80
2024/01/04 06:37:13;;;;;;;4.97;1.10;;;;;;;-148.88;100.00;-17125.47;5043672;28;20024;-80
2024/01/04 06:39:41;;;;;;;3.47;0.80;;;;;;;-148.88;100.00;-17125.47;5060285;28;20083;-80
2024/01/04 06:42:06;;;;;;;2.33;0.98;;;;;;;-148.88;100.00;-17125.47;5060640;28;20115;-80
2024/01/04 06:44:32;;;;;;;2.28;1.00;;;;;;;-148.88;100.00;-17125.47;5059965;28;20056;-80
2024/01/04 06:46:58;;;;;;;2.05;1.02;;;;;;;-148.88;100.00;-17125.47;5041986;28;20025;-80
2024/01/04 06:49:23;;;;;;;2.65;0.98;;;;;;;-148.88;100.00;-17125.47;5043374;28;20021;-80
2024/01/04 06:51:48;;;;;;;4.35;1.15;;;;;;;-148.88;100.00;-17125.47;5042359;28;20025;-80
2024/01/04 06:54:14;;;;;;;3.17;1.20;;;;;;;-148.88;100.00;-17125.47;5059025;28;20023;-80
2024/01/04 06:56:39;;;;;;;3.30;1.20;;;;;;;-148.88;100.00;-17125.47;5058506;28;20043;-80
2024/01/04 06:59:04;;;;;;;3.03;0.85;;;;;;;-148.88;100.00;-17125.47;5055834;28;20468;-79
2024/01/04 07:01:29;;;;;;;3.50;1.10;;;;;;;-148.88;100.00;-17125.47;5055601;28;20029;-79
2024/01/04 07:03:55;;;;;;;4.70;1.15;;;;;;;-148.88;100.00;-17125.47;5056540;28;20078;-80
2024/01/04 07:06:20;;;;;;;5.18;1.10;;;;;;;-148.88;100.00;-17125.47;5056998;28;20025;-80
2024/01/04 07:08:46;;;;;;;2.30;0.98;;;;;;;-148.88;100.00;-17125.47;5043072;28;20119;-80
2024/01/04 07:11:11;;;;;;;4.43;1.10;;;;;;;-148.88;100.00;-17125.47;5060911;28;20108;-80
2024/01/04 07:13:37;;;;;;;1.48;0.70;;;;;;;-148.88;100.00;-17125.47;5060742;28;20159;-80
2024/01/04 07:16:04;;;;;;;3.22;1.10;;;;;;;-148.88;100.00;-17125.47;5057871;28;20025;-79
2024/01/04 07:18:29;;;;;;;5.10;1.20;;;;;;;-148.88;100.00;-17125.47;5059103;28;20170;-80
2024/01/04 07:20:55;;;;;;;6.53;1.05;;;;;;;-148.88;100.00;-17125.47;5042123;28;20483;-80
2024/01/04 07:23:20;;;;;;;2.40;1.00;;;;;;;-148.88;100.00;-17125.47;5059741;28;20048;-80
2024/01/04 07:25:46;;;;;;;1.63;1.00;;;;;;;-148.88;100.00;-17125.47;5059964;28;20021;-80
2024/01/04 07:28:11;;;;;;;2.92;1.30;;;;;;;-148.88;100.00;-17125.47;5042649;28;20021;-80
2024/01/04 07:30:36;;;;;;;1.42;0.73;;;;;;;-148.88;100.00;-17125.47;5061221;28;20024;-80
2024/01/04 07:33:02;;;;;;;5.18;0.85;;;;;;;-148.88;100.00;-17125.47;5040730;28;20617;-79
2024/01/04 07:35:27;;;;;;;3.22;0.90;;;;;;;-148.88;100.00;-17125.47;5037266;28;20021;-79
2024/01/04 07:37:53;;;;;;;1.73;1.02;;;;;;;-148.88;100.00;-17125.47;5037991;28;20024;-80
2024/01/04 07:40:18;;;;;;;1.83;0.73;;;;;;;-148.88;100.00;-17125.47;5060957;28;20017;-80
2024/01/04 07:42:44;;;;;;;3.30;0.75;;;;;;;-148.88;100.00;-17125.47;5061347;28;20021;-80
2024/01/04 07:45:09;;;;;;;3.83;1.00;;;;;;;-148.88;100.00;-17125.47;5061067;28;20028;-80
2024/01/04 07:47:37;;;;;;;2.30;0.98;;;;;;;-148.88;100.00;-17125.47;5060371;28;20079;-80
2024/01/04 07:50:06;;;;;;;2.17;0.70;;;;;;;-148.88;100.00;-17125.47;5042363;28;20121;-80
2024/01/04 07:52:32;;;;;;;1.42;0.70;;;;;;;-148.88;100.00;-17125.47;5060240;28;20057;-80
2024/01/04 07:54:58;;;;;;;1.75;0.60;;;;;;;-148.88;100.00;-17125.47;5060199;28;20036;-80
2024/01/04 07:57:23;;;;;;;2.72;0.75;;;;;;;-148.88;100.00;-17125.47;5059312;28;20024;-80
2024/01/04 07:59:48;;;;;;;1.20;0.50;;;;;;;-148.88;100.00;-17125.47;5060521;28;20078;-80
2024/01/04 08:02:14;;;;;;;2.00;0.75;;;;;;;-148.88;100.00;-17125.47;5043098;28;20017;-80
2024/01/04 08:04:40;;;;;;;1.02;0.45;;;;;;;-148.88;100.00;-17125.47;5060270;28;20025;-80
2024/01/04 08:07:08;;;;;;;2.80;0.50;;;;;;;-148.88;100.00;-17125.47;5028528;23;20049;-85
2024/01/04 08:09:34;;;;;;;1.48;0.30;;;;;;;-148.88;100.00;-17125.47;5034684;28;20044;-84
2024/01/04 08:11:59;;;;;;;1.23;0.52;;;;;;;-148.88;100.00;-17125.47;5034283;28;20029;-85
2024/01/04 08:14:25;;;;;;;2.47;0.88;;;;;;;-148.88;100.00;-17125.47;5034334;28;20022;-85
2024/01/04 08:16:50;;;;;;;3.78;0.40;;;;;;;-148.88;100.00;-17125.47;5034537;28;20022;-85
2024/01/04 08:19:15;;;;;;;1.65;0.65;;;;;;;-148.88;100.00;-17125.47;5036118;28;20030;-85
2024/01/04 08:21:41;;;;;;;1.85;0.60;;;;;;;-148.88;100.00;-17125.47;5035188;28;20029;-85
2024/01/04 08:24:09;;;;;;;3.33;0.60;;;;;;;-148.88;100.00;-17125.47;5017422;28;20108;-86
2024/01/04 08:26:41;;;;;;;3.67;0.88;;;;;;;-148.88;100.00;-17125.47;5017379;28;20079;-84
2024/01/04 08:29:07;;;;;;;6.53;0.88;;;;;;;-148.88;100.00;-17125.47;5034958;28;20062;-85
2024/01/04 08:31:35;;;;;;;6.15;1.10;;;;;;;-148.88;100.00;-17125.47;5034934;28;20037;-85
2024/01/04 08:34:04;;;;;;;3.60;0.93;;;;;;;-148.88;100.00;-17125.47;5035193;28;20013;-85
2024/01/04 08:36:30;;;;;;;1.77;0.70;;;;;;;-148.88;100.00;-17125.47;5034279;28;20104;-85
2024/01/04 08:38:56;;;;;;;4.53;0.88;;;;;;;-148.88;100.00;-17125.47;5016360;28;20045;-84
2024/01/04 08:41:21;;;;;;;1.73;0.63;;;;;;;-148.88;100.00;-17125.47;5034033;28;20048;-85
2024/01/04 08:43:46;;;;;;;7.38;1.38;;;;;;;-148.88;100.00;-17125.47;5033790;28;20109;-84
2024/01/04 08:46:12;;;;;;;3.38;1.02;;;;;;;-148.88;100.00;-17125.47;5016375;28;20041;-85
2024/01/04 08:48:37;;;;;;;6.07;1.10;;;;;;;-148.88;100.00;-17125.47;5033948;28;20056;-85
2024/01/04 08:51:03;;;;;;;1.52;0.70;;;;;;;-148.88;100.00;-17125.47;5015908;28;20034;-85
2024/01/04 08:53:29;;;;;;;2.95;1.17;;;;;;;-148.88;100.00;-17125.47;5015043;28;20045;-85
2024/01/04 08:55:54;;;;;;;2.78;0.95;;;;;;;-148.88;100.00;-17125.47;5033902;28;20099;-85
2024/01/04 08:58:19;;;;;;;4.00;0.80;;;;;;;-148.88;100.00;-17125.47;5033801;28;20100;-85
2024/01/04 09:00:45;;;;;;;8.63;1.35;;;;;;;-148.88;100.00;-17125.47;5034000;28;20026;-84
2024/01/04 09:03:10;;;;;;;1.73;0.73;;;;;;;-148.88;100.00;-17125.47;5033816;28;20028;-85
2024/01/04 09:05:35;;;;;;;1.73;0.70;;;;;;;-148.88;100.00;-17125.47;5033451;28;20391;-85
2024/01/04 09:08:01;;;;;;;2.08;0.80;;;;;;;-148.88;100.00;-17125.47;5033893;28;20026;-83
2024/01/04 09:10:26;;;;;;;3.00;1.00;;;;;;;-148.88;100.00;-17125.47;5033664;28;20400;-85
2024/01/04 09:12:51;;;;;;;5.60;1.60;;;;;;;-148.88;100.00;-17125.47;5033389;28;20036;-85
2024/01/04 09:15:17;;;;;;;5.05;0.80;;;;;;;-148.88;100.00;-17125.47;5033772;28;20185;-85
2024/01/04 09:17:43;;;;;;;2.63;1.13;;;;;;;-148.88;100.00;-17125.47;5034016;28;20108;-85
2024/01/04 09:20:09;;;;;;;2.67;0.75;;;;;;;-148.88;100.00;-17125.47;5033716;28;20025;-85
2024/01/04 09:22:35;;;;;;;5.00;1.83;;;;;;;-148.88;100.00;-17125.47;5033673;28;20021;-84
2024/01/04 09:25:00;;;;;;;2.13;0.90;;;;;;;-148.88;100.00;-17125.47;5033959;28;20014;-83
2024/01/04 09:27:25;;;;;;;5.15;1.80;;;;;;;-148.88;100.00;-17125.47;5033885;28;20480;-85
2024/01/04 09:29:52;;;;;;;10.70;1.52;;;;;;;-148.88;100.00;-17125.47;5033524;28;20603;-85
2024/01/04 09:32:18;;;;;;;2.53;1.08;;;;;;;-148.88;100.00;-17125.47;5033697;28;20026;-84
2024/01/04 09:34:43;;;;;;;2.75;1.17;;;;;;;-148.88;100.00;-17125.47;5033744;28;20021;-85
2024/01/04 09:37:09;;;;;;;1.95;0.60;;;;;;;-148.88;100.00;-17125.47;5035525;28;20025;-85
2024/01/04 09:39:34;;;;;;;8.50;2.67;;;;;;;-148.88;100.00;-17125.47;5038476;28;20045;-86
2024/01/04 09:42:00;;;;;;;5.68;2.88;;;;;;;-148.88;100.00;-17125.47;5038497;28;20025;-85
2024/01/04 09:44:25;;;;;;;4.82;0.95;;;;;;;-148.88;100.00;-17125.47;5040593;28;20072;-85
2024/01/04 09:46:56;;;;;;;5.47;1.35;;;;;;;-148.88;100.00;-17125.47;5041482;28;20036;-85
2024/01/04 09:49:21;;;;;;;3.67;0.80;;;;;;;-148.88;100.00;-17125.47;5042598;28;20442;-85
2024/01/04 09:51:47;;;;;;;3.15;0.98;;;;;;;-148.88;100.00;-17125.47;5039553;28;20018;-85
2024/01/04 09:54:13;;;;;;;3.80;0.70;;;;;;;-148.88;100.00;-17125.47;5039993;28;20018;-86
2024/01/04 09:56:40;;;;;;;1.48;0.60;;;;;;;-148.88;100.00;-17125.47;5042308;28;20060;-84
2024/01/04 09:59:07;;;;;;;1.50;0.60;;;;;;;-148.88;100.00;-17125.47;5045986;28;20044;-85
2024/01/04 10:01:34;;;;;;;4.13;0.70;;;;;;;-148.88;100.00;-17125.47;5042297;28;20033;-85
2024/01/04 10:04:04;;;;;;;3.67;0.73;;;;;;;-148.88;100.00;-17125.47;5018557;28;20024;-86
2024/01/04 10:06:40;;;;;;;2.45;0.82;;;;;;;-148.88;100.00;-17125.47;5036848;28;20037;-87
2024/01/04 10:09:18;;;;;;;3.08;0.60;;;;;;;-148.88;100.00;-17125.47;5019295;28;20435;-87
2024/01/04 10:12:08;;;;;;;3.70;0.90;;;;;;;-148.88;100.00;-17125.47;5036836;28;20606;-88
2024/01/04 10:14:34;;;;;;;2.58;1.00;;;;;;;-148.88;100.00;-17125.47;5029840;28;20033;-87
2024/01/04 10:17:01;;;;;;;4.22;0.85;;;;;;;-148.88;100.00;-17125.47;5037092;28;20033;-87
2024/01/04 10:19:27;;;;;;;3.70;1.08;;;;;;;-148.88;100.00;-17125.47;5038621;28;20476;-87
2024/01/04 10:21:52;;;;;;;1.83;1.30;;;;;;;-148.88;100.00;-17125.47;5036700;28;20084;-88
2024/01/04 10:24:25;;;;;;;2.67;0.73;;;;;;;-148.88;100.00;-17125.47;5036302;28;20025;-87
2024/01/04 10:26:58;;;;;;;1.77;0.77;;;;;;;-148.88;100.00;-17125.47;5036919;28;20107;-87
2024/01/04 10:29:24;;;;;;;4.45;1.00;;;;;;;-148.88;100.00;-17125.47;5036467;28;20034;-88
2024/01/04 10:32:09;;;;;;;1.58;0.82;;;;;;;-148.88;100.00;-17125.47;5036815;28;20491;-88
2024/01/04 10:34:37;;;;;;;1.17;0.70;;;;;;;-148.88;100.00;-17125.47;5018566;28;20013;-87
2024/01/04 10:37:12;;;;;;;4.20;0.80;;;;;;;-148.88;100.00;-17125.47;5036454;28;20017;-87
2024/01/04 10:39:38;;;;;;;1.98;0.90;;;;;;;-148.88;100.00;-17125.47;5052035;28;20438;-86
2024/01/04 10:42:05;;;;;;;5.60;1.40;;;;;;;-148.88;100.00;-17125.47;5055921;28;20025;-86
2024/01/04 10:44:35;;;;;;;2.40;0.98;;;;;;;-148.88;100.00;-17125.47;5054500;28;20483;-87
2024/01/04 10:47:01;;;;;;;2.67;1.00;;;;;;;-148.88;100.00;-17125.47;5049527;28;20021;-87
2024/01/04 10:49:27;;;;;;;3.35;0.52;;;;;;;-148.88;100.00;-17125.47;5057753;28;20045;-88
2024/01/04 10:51:57;;;;;;;2.58;1.20;;;;;;;-148.88;100.00;-17125.47;5036118;28;20527;-87
2024/01/04 10:54:33;;;;;;;3.05;0.60;;;;;;;-148.88;100.00;-17125.47;5039764;28;20040;-88
2024/01/04 10:56:59;;;;;;;0.98;0.45;;;;;;;-148.88;100.00;-17125.47;5052877;28;20031;-88
2024/01/04 10:59:27;;;;;;;2.78;0.80;;;;;;;-148.88;100.00;-17125.47;5036231;28;20047;-88
2024/01/04 11:01:53;;;;;;;3.92;0.95;;;;;;;-148.88;100.00;-17125.47;5036233;28;20025;-88
2024/01/04 11:04:21;;;;;;;3.08;0.73;;;;;;;-148.88;100.00;-17125.47;5035953;28;20021;-88
2024/01/04 11:06:48;;;;;;;1.48;0.60;;;;;;;-148.88;100.00;-17125.47;5036217;28;20404;-88
2024/01/04 11:09:13;;;;;;;2.40;0.77;;;;;;;-148.88;100.00;-17125.47;5043143;28;20029;-88
2024/01/04 11:11:40;;;;;;;2.65;0.70;;;;;;;-148.88;100.00;-17125.47;5035807;28;20048;-88
2024/01/04 11:14:06;;;;;;;1.88;0.60;;;;;;;-148.88;100.00;-17125.47;5035570;28;20392;-88
2024/01/04 11:16:43;;;;;;;2.65;0.40;;;;;;;-148.88;100.00;-17125.47;5017010;28;20021;-88
2024/01/04 11:19:52;;;;;;;1.83;0.60;;;;;;;-148.88;100.00;-17125.47;5036041;28;20033;-88
2024/01/04 11:22:32;;;;;;;5.38;0.90;;;;;;;-148.88;100.00;-17125.47;5035533;28;20013;-88
2024/01/04 11:25:25;;;;;;;0.80;0.40;;;;;;;-148.88;100.00;-17125.47;5035818;28;20036;-88
2024/01/04 11:27:51;;;;;;;3.42;0.82;;;;;;;-148.88;100.00;-17125.47;5035531;28;20099;-87
2024/01/04 11:30:17;;;;;;;2.85;0.68;;;;;;;-148.88;100.00;-17125.47;5035405;28;20480;-88
2024/01/04 11:32:45;;;;;;;3.53;1.27;;;;;;;-148.88;100.00;-17125.47;5035354;28;20481;-87
2024/01/04 11:35:11;;;;;;;1.40;0.52;;;;;;;-148.88;100.00;-17125.47;5037853;28;20105;-86
2024/01/04 11:37:40;;;;;;;2.33;0.70;;;;;;;-148.88;100.00;-17125.47;5036457;28;20060;-87